sensor_id;sensor_type;location;lat;lon;timestamp;temperature;humidity
30999;DHT22;20549;50.042;8.968;2023-08-31T00:01:32;15.40;99.90
30999;DHT22;20549;50.042;8.968;2023-08-31T00:03:59;15.40;99.90
30999;DHT22;20549;50.042;8.968;2023-08-31T00:06:25;15.40;99.90
30999;DHT22;20549;50.042;8.968;2023-08-31T00:08:52;15.40;99.90
30999;DHT22;20549;50.042;8.968;2023-08-31T00:11:18;15.40;99.90
30999;DHT22;20549;50.042;8.968;2023-08-31T00:13:45;15.40;99.90
30999;DHT22;20549;50.042;8.968;2023-08-31T00:16:11;15.40;99.90
30999;DHT22;20549;50.042;8.968;2023-08-31T00:18:38;15.30;99.90
30999;DHT22;20549;50.042;8.968;2023-08-31T00:21:05;15.30;99.90
30999;DHT22;20549;50.042;8.968;2023-08-31T00:23:31;15.30;99.90
30999;DHT22;20549;50.042;8.968;2023-08-31T00:25:58;15.30;99.90
30999;DHT22;20549;50.042;8.968;2023-08-31T00:28:24;15.30;99.90
30999;DHT22;20549;50.042;8.968;2023-08-31T00:30:51;15.30;99.90
30999;DHT22;20549;50.042;8.968;2023-08-31T00:33:17;15.30;99.90
30999;DHT22;20549;50.042;8.968;2023-08-31T00:35:44;15.30;99.90
30999;DHT22;20549;50.042;8.968;2023-08-31T00:38:11;15.30;99.90
30999;DHT22;20549;50.042;8.968;2023-08-31T00:40:43;15.20;99.90
30999;DHT22;20549;50.042;8.968;2023-08-31T00:43:15;15.20;99.90
30999;DHT22;20549;50.042;8.968;2023-08-31T00:45:42;15.20;99.90
30999;DHT22;20549;50.042;8.968;2023-08-31T00:48:08;15.20;99.90
30999;DHT22;20549;50.042;8.968;2023-08-31T00:50:35;15.20;99.90
30999;DHT22;20549;50.042;8.968;2023-08-31T00:53:01;15.20;99.90
30999;DHT22;20549;50.042;8.968;2023-08-31T00:55:28;15.20;99.90
30999;DHT22;20549;50.042;8.968;2023-08-31T00:57:55;15.20;99.90
30999;DHT22;20549;50.042;8.968;2023-08-31T01:00:23;15.20;99.90
30999;DHT22;20549;50.042;8.968;2023-08-31T01:02:54;15.20;99.90
30999;DHT22;20549;50.042;8.968;2023-08-31T01:05:31;15.20;99.90
30999;DHT22;20549;50.042;8.968;2023-08-31T01:08:09;15.20;99.90
30999;DHT22;20549;50.042;8.968;2023-08-31T01:13:14;15.20;99.90
30999;DHT22;20549;50.042;8.968;2023-08-31T01:15:43;15.20;99.90
30999;DHT22;20549;50.042;8.968;2023-08-31T01:18:09;15.10;99.90
30999;DHT22;20549;50.042;8.968;2023-08-31T01:20:37;15.10;99.90
30999;DHT22;20549;50.042;8.968;2023-08-31T01:23:06;15.10;99.90
30999;DHT22;20549;50.042;8.968;2023-08-31T01:25:31;15.10;99.90
30999;DHT22;20549;50.042;8.968;2023-08-31T01:27:58;15.10;99.90
30999;DHT22;20549;50.042;8.968;2023-08-31T01:30:24;15.00;99.90
30999;DHT22;20549;50.042;8.968;2023-08-31T01:32:50;15.00;99.90
30999;DHT22;20549;50.042;8.968;2023-08-31T01:35:17;15.00;99.90
30999;DHT22;20549;50.042;8.968;2023-08-31T01:37:53;15.00;99.90
30999;DHT22;20549;50.042;8.968;2023-08-31T01:41:08;14.90;99.90
30999;DHT22;20549;50.042;8.968;2023-08-31T01:42:54;14.90;99.90
30999;DHT22;20549;50.042;8.968;2023-08-31T01:45:22;14.90;99.90
30999;DHT22;20549;50.042;8.968;2023-08-31T01:47:48;14.90;99.90
30999;DHT22;20549;50.042;8.968;2023-08-31T01:50:14;14.90;99.90
30999;DHT22;20549;50.042;8.968;2023-08-31T01:52:40;14.90;99.90
30999;DHT22;20549;50.042;8.968;2023-08-31T01:55:07;14.80;99.90
30999;DHT22;20549;50.042;8.968;2023-08-31T01:57:34;14.80;99.90
30999;DHT22;20549;50.042;8.968;2023-08-31T02:00:00;14.80;99.90
30999;DHT22;20549;50.042;8.968;2023-08-31T02:02:27;14.80;99.90
30999;DHT22;20549;50.042;8.968;2023-08-31T02:04:53;14.70;99.90
30999;DHT22;20549;50.042;8.968;2023-08-31T02:07:20;14.70;99.90
30999;DHT22;20549;50.042;8.968;2023-08-31T02:09:47;14.70;99.90
30999;DHT22;20549;50.042;8.968;2023-08-31T02:12:13;14.70;99.90
30999;DHT22;20549;50.042;8.968;2023-08-31T02:14:40;14.60;99.90
30999;DHT22;20549;50.042;8.968;2023-08-31T02:17:06;14.60;99.90
30999;DHT22;20549;50.042;8.968;2023-08-31T02:19:33;14.60;99.90
30999;DHT22;20549;50.042;8.968;2023-08-31T02:22:00;14.70;99.90
30999;DHT22;20549;50.042;8.968;2023-08-31T02:24:26;14.70;99.90
30999;DHT22;20549;50.042;8.968;2023-08-31T02:26:53;14.70;99.90
30999;DHT22;20549;50.042;8.968;2023-08-31T02:29:19;14.70;99.90
30999;DHT22;20549;50.042;8.968;2023-08-31T02:31:46;14.80;99.90
30999;DHT22;20549;50.042;8.968;2023-08-31T02:34:12;14.80;99.90
30999;DHT22;20549;50.042;8.968;2023-08-31T02:36:39;14.80;99.90
30999;DHT22;20549;50.042;8.968;2023-08-31T02:39:06;14.80;99.90
30999;DHT22;20549;50.042;8.968;2023-08-31T02:41:32;14.80;99.90
30999;DHT22;20549;50.042;8.968;2023-08-31T02:43:59;14.80;99.90
30999;DHT22;20549;50.042;8.968;2023-08-31T02:46:25;14.70;99.90
30999;DHT22;20549;50.042;8.968;2023-08-31T02:48:52;14.70;99.90
30999;DHT22;20549;50.042;8.968;2023-08-31T02:51:19;14.70;99.90
30999;DHT22;20549;50.042;8.968;2023-08-31T02:53:45;14.70;99.90
30999;DHT22;20549;50.042;8.968;2023-08-31T02:56:12;14.70;99.90
30999;DHT22;20549;50.042;8.968;2023-08-31T02:58:38;14.70;99.90
30999;DHT22;20549;50.042;8.968;2023-08-31T03:01:11;14.70;99.90
30999;DHT22;20549;50.042;8.968;2023-08-31T03:03:41;14.80;99.90
30999;DHT22;20549;50.042;8.968;2023-08-31T03:06:07;14.80;99.90
30999;DHT22;20549;50.042;8.968;2023-08-31T03:08:33;14.80;99.90
30999;DHT22;20549;50.042;8.968;2023-08-31T03:11:00;14.80;99.90
30999;DHT22;20549;50.042;8.968;2023-08-31T03:13:26;14.90;99.90
30999;DHT22;20549;50.042;8.968;2023-08-31T03:15:53;14.90;99.90
30999;DHT22;20549;50.042;8.968;2023-08-31T03:18:20;14.90;99.90
30999;DHT22;20549;50.042;8.968;2023-08-31T03:20:46;15.00;99.90
30999;DHT22;20549;50.042;8.968;2023-08-31T03:23:13;15.00;99.90
30999;DHT22;20549;50.042;8.968;2023-08-31T03:25:39;15.00;99.90
30999;DHT22;20549;50.042;8.968;2023-08-31T03:28:06;15.10;99.90
30999;DHT22;20549;50.042;8.968;2023-08-31T03:30:33;15.10;99.90
30999;DHT22;20549;50.042;8.968;2023-08-31T03:32:59;15.10;99.90
30999;DHT22;20549;50.042;8.968;2023-08-31T03:35:26;15.10;99.90
30999;DHT22;20549;50.042;8.968;2023-08-31T03:37:55;15.10;99.90
30999;DHT22;20549;50.042;8.968;2023-08-31T03:40:22;15.10;99.90
30999;DHT22;20549;50.042;8.968;2023-08-31T03:42:51;15.10;99.90
30999;DHT22;20549;50.042;8.968;2023-08-31T03:45:18;15.20;99.90
30999;DHT22;20549;50.042;8.968;2023-08-31T03:47:44;15.20;99.90
30999;DHT22;20549;50.042;8.968;2023-08-31T03:50:11;15.20;99.90
30999;DHT22;20549;50.042;8.968;2023-08-31T03:52:37;15.20;99.90
30999;DHT22;20549;50.042;8.968;2023-08-31T03:55:04;15.20;99.90
30999;DHT22;20549;50.042;8.968;2023-08-31T03:57:30;15.20;99.90
30999;DHT22;20549;50.042;8.968;2023-08-31T03:59:57;15.30;99.90
30999;DHT22;20549;50.042;8.968;2023-08-31T04:02:24;15.30;99.90
30999;DHT22;20549;50.042;8.968;2023-08-31T04:04:50;15.30;99.90
30999;DHT22;20549;50.042;8.968;2023-08-31T04:07:17;15.30;99.90
30999;DHT22;20549;50.042;8.968;2023-08-31T04:09:43;15.30;99.90
30999;DHT22;20549;50.042;8.968;2023-08-31T04:12:10;15.30;99.90
30999;DHT22;20549;50.042;8.968;2023-08-31T04:14:37;15.30;99.90
30999;DHT22;20549;50.042;8.968;2023-08-31T04:17:03;15.30;99.90
30999;DHT22;20549;50.042;8.968;2023-08-31T04:19:30;15.30;99.90
30999;DHT22;20549;50.042;8.968;2023-08-31T04:21:56;15.30;99.90
30999;DHT22;20549;50.042;8.968;2023-08-31T04:24:23;15.30;99.90
30999;DHT22;20549;50.042;8.968;2023-08-31T04:26:50;15.30;99.90
30999;DHT22;20549;50.042;8.968;2023-08-31T04:29:16;15.30;99.90
30999;DHT22;20549;50.042;8.968;2023-08-31T04:31:43;15.30;99.90
30999;DHT22;20549;50.042;8.968;2023-08-31T04:34:09;15.30;99.90
30999;DHT22;20549;50.042;8.968;2023-08-31T04:36:36;15.30;99.90
30999;DHT22;20549;50.042;8.968;2023-08-31T04:39:02;15.30;99.90
30999;DHT22;20549;50.042;8.968;2023-08-31T04:41:29;15.30;99.90
30999;DHT22;20549;50.042;8.968;2023-08-31T04:43:56;15.40;99.90
30999;DHT22;20549;50.042;8.968;2023-08-31T04:46:22;15.40;99.90
30999;DHT22;20549;50.042;8.968;2023-08-31T04:48:49;15.40;99.90
30999;DHT22;20549;50.042;8.968;2023-08-31T04:51:30;15.40;99.90
30999;DHT22;20549;50.042;8.968;2023-08-31T04:53:57;15.40;99.90
30999;DHT22;20549;50.042;8.968;2023-08-31T04:56:23;15.40;99.90
30999;DHT22;20549;50.042;8.968;2023-08-31T04:58:50;15.40;99.90
30999;DHT22;20549;50.042;8.968;2023-08-31T05:01:16;15.40;99.90
30999;DHT22;20549;50.042;8.968;2023-08-31T05:03:43;15.40;99.90
30999;DHT22;20549;50.042;8.968;2023-08-31T05:06:10;15.40;99.90
30999;DHT22;20549;50.042;8.968;2023-08-31T05:08:36;15.40;99.90
30999;DHT22;20549;50.042;8.968;2023-08-31T05:11:03;15.40;99.90
30999;DHT22;20549;50.042;8.968;2023-08-31T05:13:29;15.40;99.90
30999;DHT22;20549;50.042;8.968;2023-08-31T05:15:56;15.50;99.90
30999;DHT22;20549;50.042;8.968;2023-08-31T05:18:23;15.50;99.90
30999;DHT22;20549;50.042;8.968;2023-08-31T05:20:49;15.50;99.90
30999;DHT22;20549;50.042;8.968;2023-08-31T05:23:16;15.60;99.90
30999;DHT22;20549;50.042;8.968;2023-08-31T05:25:43;15.60;99.90
30999;DHT22;20549;50.042;8.968;2023-08-31T05:28:09;15.60;99.90
30999;DHT22;20549;50.042;8.968;2023-08-31T05:30:36;15.70;99.90
30999;DHT22;20549;50.042;8.968;2023-08-31T05:33:02;15.70;99.90
30999;DHT22;20549;50.042;8.968;2023-08-31T05:35:29;15.80;99.90
30999;DHT22;20549;50.042;8.968;2023-08-31T05:37:55;15.80;99.90
30999;DHT22;20549;50.042;8.968;2023-08-31T05:40:22;15.90;99.90
30999;DHT22;20549;50.042;8.968;2023-08-31T05:42:49;16.10;99.90
30999;DHT22;20549;50.042;8.968;2023-08-31T05:45:15;16.30;99.90
30999;DHT22;20549;50.042;8.968;2023-08-31T05:47:42;16.60;99.90
30999;DHT22;20549;50.042;8.968;2023-08-31T05:50:08;17.00;99.90
30999;DHT22;20549;50.042;8.968;2023-08-31T05:52:35;17.30;99.90
30999;DHT22;20549;50.042;8.968;2023-08-31T05:55:01;17.80;99.90
30999;DHT22;20549;50.042;8.968;2023-08-31T05:57:28;18.30;99.90
30999;DHT22;20549;50.042;8.968;2023-08-31T05:59:55;18.80;99.90
30999;DHT22;20549;50.042;8.968;2023-08-31T06:02:21;19.40;99.90
30999;DHT22;20549;50.042;8.968;2023-08-31T06:04:48;20.00;99.90
30999;DHT22;20549;50.042;8.968;2023-08-31T06:07:14;20.60;99.90
30999;DHT22;20549;50.042;8.968;2023-08-31T06:09:41;21.20;99.90
30999;DHT22;20549;50.042;8.968;2023-08-31T06:12:08;21.80;99.90
30999;DHT22;20549;50.042;8.968;2023-08-31T06:14:34;22.40;99.90
30999;DHT22;20549;50.042;8.968;2023-08-31T06:17:01;22.80;98.40
30999;DHT22;20549;50.042;8.968;2023-08-31T06:19:27;23.10;94.00
30999;DHT22;20549;50.042;8.968;2023-08-31T06:21:54;23.30;90.50
30999;DHT22;20549;50.042;8.968;2023-08-31T06:24:21;23.20;86.50
30999;DHT22;20549;50.042;8.968;2023-08-31T06:26:47;23.10;84.80
30999;DHT22;20549;50.042;8.968;2023-08-31T06:29:14;22.90;84.20
30999;DHT22;20549;50.042;8.968;2023-08-31T06:31:40;22.80;83.50
30999;DHT22;20549;50.042;8.968;2023-08-31T06:34:07;22.60;82.50
30999;DHT22;20549;50.042;8.968;2023-08-31T06:36:34;22.40;81.80
30999;DHT22;20549;50.042;8.968;2023-08-31T06:39:00;22.10;81.70
30999;DHT22;20549;50.042;8.968;2023-08-31T06:41:27;21.90;82.50
30999;DHT22;20549;50.042;8.968;2023-08-31T06:43:53;21.80;87.60
30999;DHT22;20549;50.042;8.968;2023-08-31T06:46:20;21.90;93.00
30999;DHT22;20549;50.042;8.968;2023-08-31T06:48:46;22.30;96.20
30999;DHT22;20549;50.042;8.968;2023-08-31T06:51:13;22.80;96.40
30999;DHT22;20549;50.042;8.968;2023-08-31T06:53:41;23.30;94.50
30999;DHT22;20549;50.042;8.968;2023-08-31T06:56:06;23.90;91.40
30999;DHT22;20549;50.042;8.968;2023-08-31T06:58:33;24.30;86.50
30999;DHT22;20549;50.042;8.968;2023-08-31T07:00:59;24.70;82.30
30999;DHT22;20549;50.042;8.968;2023-08-31T07:03:26;24.80;79.30
30999;DHT22;20549;50.042;8.968;2023-08-31T07:05:53;25.00;78.40
30999;DHT22;20549;50.042;8.968;2023-08-31T07:08:19;25.20;77.70
30999;DHT22;20549;50.042;8.968;2023-08-31T07:10:46;25.40;78.20
30999;DHT22;20549;50.042;8.968;2023-08-31T07:13:12;25.80;79.10
30999;DHT22;20549;50.042;8.968;2023-08-31T07:15:39;26.30;78.90
30999;DHT22;20549;50.042;8.968;2023-08-31T07:18:05;26.80;77.70
30999;DHT22;20549;50.042;8.968;2023-08-31T07:20:32;27.30;75.40
30999;DHT22;20549;50.042;8.968;2023-08-31T07:22:59;27.80;73.10
30999;DHT22;20549;50.042;8.968;2023-08-31T07:25:25;28.20;71.40
30999;DHT22;20549;50.042;8.968;2023-08-31T07:27:52;28.50;71.30
30999;DHT22;20549;50.042;8.968;2023-08-31T07:30:18;28.70;67.90
30999;DHT22;20549;50.042;8.968;2023-08-31T07:32:45;28.90;65.80
30999;DHT22;20549;50.042;8.968;2023-08-31T07:35:12;28.90;64.50
30999;DHT22;20549;50.042;8.968;2023-08-31T07:37:38;28.90;64.60
30999;DHT22;20549;50.042;8.968;2023-08-31T07:40:05;28.90;64.00
30999;DHT22;20549;50.042;8.968;2023-08-31T07:42:34;28.80;63.00
30999;DHT22;20549;50.042;8.968;2023-08-31T07:45:01;28.70;61.60
30999;DHT22;20549;50.042;8.968;2023-08-31T07:47:28;28.40;60.50
30999;DHT22;20549;50.042;8.968;2023-08-31T07:49:54;28.00;60.00
30999;DHT22;20549;50.042;8.968;2023-08-31T07:52:21;27.60;59.90
30999;DHT22;20549;50.042;8.968;2023-08-31T07:54:48;27.20;59.90
30999;DHT22;20549;50.042;8.968;2023-08-31T07:57:14;26.70;59.90
30999;DHT22;20549;50.042;8.968;2023-08-31T07:59:40;26.30;60.20
30999;DHT22;20549;50.042;8.968;2023-08-31T08:02:07;25.90;60.90
30999;DHT22;20549;50.042;8.968;2023-08-31T08:04:34;25.50;61.40
30999;DHT22;20549;50.042;8.968;2023-08-31T08:07:00;25.20;61.70
30999;DHT22;20549;50.042;8.968;2023-08-31T08:09:27;24.90;62.40
30999;DHT22;20549;50.042;8.968;2023-08-31T08:11:53;24.60;62.90
30999;DHT22;20549;50.042;8.968;2023-08-31T08:14:20;24.40;63.50
30999;DHT22;20549;50.042;8.968;2023-08-31T08:16:47;24.30;64.00
30999;DHT22;20549;50.042;8.968;2023-08-31T08:19:13;24.20;64.80
30999;DHT22;20549;50.042;8.968;2023-08-31T08:21:40;24.30;65.90
30999;DHT22;20549;50.042;8.968;2023-08-31T08:24:06;24.50;66.70
30999;DHT22;20549;50.042;8.968;2023-08-31T08:26:33;24.70;66.40
30999;DHT22;20549;50.042;8.968;2023-08-31T08:29:00;24.90;66.40
30999;DHT22;20549;50.042;8.968;2023-08-31T08:31:26;25.30;66.60
30999;DHT22;20549;50.042;8.968;2023-08-31T08:33:53;25.70;66.70
30999;DHT22;20549;50.042;8.968;2023-08-31T08:36:19;26.00;66.20
30999;DHT22;20549;50.042;8.968;2023-08-31T08:38:46;26.30;65.00
30999;DHT22;20549;50.042;8.968;2023-08-31T08:41:13;26.60;64.20
30999;DHT22;20549;50.042;8.968;2023-08-31T08:43:39;26.80;62.80
30999;DHT22;20549;50.042;8.968;2023-08-31T08:46:06;26.90;61.90
30999;DHT22;20549;50.042;8.968;2023-08-31T08:48:33;27.00;61.70
30999;DHT22;20549;50.042;8.968;2023-08-31T08:50:59;27.20;61.80
30999;DHT22;20549;50.042;8.968;2023-08-31T08:53:25;27.30;61.90
30999;DHT22;20549;50.042;8.968;2023-08-31T08:55:52;27.40;61.00
30999;DHT22;20549;50.042;8.968;2023-08-31T08:58:19;27.60;61.00
30999;DHT22;20549;50.042;8.968;2023-08-31T09:00:46;27.90;61.70
30999;DHT22;20549;50.042;8.968;2023-08-31T09:03:12;28.10;60.80
30999;DHT22;20549;50.042;8.968;2023-08-31T09:05:38;28.40;60.10
30999;DHT22;20549;50.042;8.968;2023-08-31T09:08:06;28.70;60.00
30999;DHT22;20549;50.042;8.968;2023-08-31T09:10:43;29.10;60.20
30999;DHT22;20549;50.042;8.968;2023-08-31T09:13:07;29.60;60.20
30999;DHT22;20549;50.042;8.968;2023-08-31T09:15:40;30.00;59.50
30999;DHT22;20549;50.042;8.968;2023-08-31T09:18:03;30.30;57.80
30999;DHT22;20549;50.042;8.968;2023-08-31T09:20:30;30.40;56.30
30999;DHT22;20549;50.042;8.968;2023-08-31T09:22:56;30.20;55.30
30999;DHT22;20549;50.042;8.968;2023-08-31T09:25:23;30.00;54.60
30999;DHT22;20549;50.042;8.968;2023-08-31T09:27:49;29.60;54.10
30999;DHT22;20549;50.042;8.968;2023-08-31T09:30:16;29.20;54.00
30999;DHT22;20549;50.042;8.968;2023-08-31T09:32:42;28.70;54.10
30999;DHT22;20549;50.042;8.968;2023-08-31T09:35:09;28.40;54.90
30999;DHT22;20549;50.042;8.968;2023-08-31T09:37:36;28.20;56.20
30999;DHT22;20549;50.042;8.968;2023-08-31T09:40:02;28.30;57.30
30999;DHT22;20549;50.042;8.968;2023-08-31T09:42:38;28.50;58.00
30999;DHT22;20549;50.042;8.968;2023-08-31T09:45:04;29.00;58.70
30999;DHT22;20549;50.042;8.968;2023-08-31T09:47:31;29.50;58.50
30999;DHT22;20549;50.042;8.968;2023-08-31T09:49:58;30.10;57.90
30999;DHT22;20549;50.042;8.968;2023-08-31T09:52:24;30.60;56.50
30999;DHT22;20549;50.042;8.968;2023-08-31T09:54:51;31.00;55.70
30999;DHT22;20549;50.042;8.968;2023-08-31T09:57:17;31.10;54.10
30999;DHT22;20549;50.042;8.968;2023-08-31T09:59:44;31.10;52.50
30999;DHT22;20549;50.042;8.968;2023-08-31T10:02:11;30.80;51.40
30999;DHT22;20549;50.042;8.968;2023-08-31T10:04:37;30.40;50.90
30999;DHT22;20549;50.042;8.968;2023-08-31T10:07:04;29.90;50.80
30999;DHT22;20549;50.042;8.968;2023-08-31T10:09:30;29.30;51.40
30999;DHT22;20549;50.042;8.968;2023-08-31T10:11:57;28.80;51.80
30999;DHT22;20549;50.042;8.968;2023-08-31T10:14:24;28.30;52.20
30999;DHT22;20549;50.042;8.968;2023-08-31T10:16:50;28.00;52.60
30999;DHT22;20549;50.042;8.968;2023-08-31T10:19:17;27.60;53.10
30999;DHT22;20549;50.042;8.968;2023-08-31T10:21:44;27.30;53.60
30999;DHT22;20549;50.042;8.968;2023-08-31T10:24:10;27.10;54.10
30999;DHT22;20549;50.042;8.968;2023-08-31T10:26:36;27.00;54.30
30999;DHT22;20549;50.042;8.968;2023-08-31T10:29:03;26.90;54.10
30999;DHT22;20549;50.042;8.968;2023-08-31T10:31:31;26.80;54.20
30999;DHT22;20549;50.042;8.968;2023-08-31T10:33:57;26.80;54.00
30999;DHT22;20549;50.042;8.968;2023-08-31T10:36:41;26.70;53.50
30999;DHT22;20549;50.042;8.968;2023-08-31T10:39:17;26.50;53.50
30999;DHT22;20549;50.042;8.968;2023-08-31T10:41:51;26.40;53.60
30999;DHT22;20549;50.042;8.968;2023-08-31T10:44:19;26.20;53.80
30999;DHT22;20549;50.042;8.968;2023-08-31T10:46:45;26.00;53.90
30999;DHT22;20549;50.042;8.968;2023-08-31T10:51:38;25.70;54.10
30999;DHT22;20549;50.042;8.968;2023-08-31T10:59:22;25.40;54.40
30999;DHT22;20549;50.042;8.968;2023-08-31T11:01:57;25.40;54.40
30999;DHT22;20549;50.042;8.968;2023-08-31T11:04:26;25.30;54.50
30999;DHT22;20549;50.042;8.968;2023-08-31T11:07:11;25.20;54.60
30999;DHT22;20549;50.042;8.968;2023-08-31T11:09:20;25.10;54.80
30999;DHT22;20549;50.042;8.968;2023-08-31T11:11:46;25.10;54.70
30999;DHT22;20549;50.042;8.968;2023-08-31T11:14:12;25.00;54.60
30999;DHT22;20549;50.042;8.968;2023-08-31T11:16:39;24.90;54.50
30999;DHT22;20549;50.042;8.968;2023-08-31T11:19:06;24.90;54.60
30999;DHT22;20549;50.042;8.968;2023-08-31T11:21:32;24.80;54.70
30999;DHT22;20549;50.042;8.968;2023-08-31T11:23:59;24.70;54.90
30999;DHT22;20549;50.042;8.968;2023-08-31T11:26:29;24.70;55.20
30999;DHT22;20549;50.042;8.968;2023-08-31T11:28:58;24.80;55.60
30999;DHT22;20549;50.042;8.968;2023-08-31T11:31:24;24.90;56.00
30999;DHT22;20549;50.042;8.968;2023-08-31T11:33:51;25.00;56.00
30999;DHT22;20549;50.042;8.968;2023-08-31T11:36:17;25.20;55.70
30999;DHT22;20549;50.042;8.968;2023-08-31T11:38:44;25.40;55.40
30999;DHT22;20549;50.042;8.968;2023-08-31T11:41:11;25.50;55.00
30999;DHT22;20549;50.042;8.968;2023-08-31T11:43:37;25.70;54.80
30999;DHT22;20549;50.042;8.968;2023-08-31T11:46:04;25.80;54.50
30999;DHT22;20549;50.042;8.968;2023-08-31T11:48:31;25.90;54.50
30999;DHT22;20549;50.042;8.968;2023-08-31T11:50:57;26.00;54.20
30999;DHT22;20549;50.042;8.968;2023-08-31T11:53:23;26.10;54.10
30999;DHT22;20549;50.042;8.968;2023-08-31T11:55:50;26.10;53.80
30999;DHT22;20549;50.042;8.968;2023-08-31T11:58:17;26.10;53.60
30999;DHT22;20549;50.042;8.968;2023-08-31T12:00:43;26.20;53.40
30999;DHT22;20549;50.042;8.968;2023-08-31T12:03:10;26.20;53.00
30999;DHT22;20549;50.042;8.968;2023-08-31T12:05:46;26.20;52.80
30999;DHT22;20549;50.042;8.968;2023-08-31T12:08:13;26.20;52.60
30999;DHT22;20549;50.042;8.968;2023-08-31T12:10:42;26.20;52.70
30999;DHT22;20549;50.042;8.968;2023-08-31T12:13:09;26.20;52.80
30999;DHT22;20549;50.042;8.968;2023-08-31T12:15:35;26.20;52.60
30999;DHT22;20549;50.042;8.968;2023-08-31T12:18:08;26.30;52.70
30999;DHT22;20549;50.042;8.968;2023-08-31T12:20:34;26.30;52.60
30999;DHT22;20549;50.042;8.968;2023-08-31T12:23:01;26.30;52.40
30999;DHT22;20549;50.042;8.968;2023-08-31T12:25:27;26.40;52.30
30999;DHT22;20549;50.042;8.968;2023-08-31T12:27:54;26.40;52.30
30999;DHT22;20549;50.042;8.968;2023-08-31T12:30:20;26.40;52.30
30999;DHT22;20549;50.042;8.968;2023-08-31T12:32:47;26.40;52.20
30999;DHT22;20549;50.042;8.968;2023-08-31T12:35:14;26.40;52.30
30999;DHT22;20549;50.042;8.968;2023-08-31T12:37:40;26.50;52.50
30999;DHT22;20549;50.042;8.968;2023-08-31T12:40:07;26.50;52.60
30999;DHT22;20549;50.042;8.968;2023-08-31T12:42:34;26.50;52.50
30999;DHT22;20549;50.042;8.968;2023-08-31T12:45:00;26.60;52.40
30999;DHT22;20549;50.042;8.968;2023-08-31T12:47:27;26.60;52.20
30999;DHT22;20549;50.042;8.968;2023-08-31T12:49:53;26.60;52.10
30999;DHT22;20549;50.042;8.968;2023-08-31T12:52:20;26.70;52.10
30999;DHT22;20549;50.042;8.968;2023-08-31T12:54:46;26.70;51.70
30999;DHT22;20549;50.042;8.968;2023-08-31T12:57:13;26.70;51.60
30999;DHT22;20549;50.042;8.968;2023-08-31T12:59:40;26.60;51.80
30999;DHT22;20549;50.042;8.968;2023-08-31T13:02:06;26.60;51.80
30999;DHT22;20549;50.042;8.968;2023-08-31T13:04:33;26.60;51.80
30999;DHT22;20549;50.042;8.968;2023-08-31T13:06:59;26.60;51.80
30999;DHT22;20549;50.042;8.968;2023-08-31T13:09:26;26.60;51.50
30999;DHT22;20549;50.042;8.968;2023-08-31T13:11:53;26.50;51.30
30999;DHT22;20549;50.042;8.968;2023-08-31T13:14:19;26.50;51.30
30999;DHT22;20549;50.042;8.968;2023-08-31T13:16:46;26.50;51.10
30999;DHT22;20549;50.042;8.968;2023-08-31T13:19:12;26.50;51.30
30999;DHT22;20549;50.042;8.968;2023-08-31T13:21:39;26.50;50.90
30999;DHT22;20549;50.042;8.968;2023-08-31T13:24:06;26.50;50.20
30999;DHT22;20549;50.042;8.968;2023-08-31T13:26:32;26.50;50.50
30999;DHT22;20549;50.042;8.968;2023-08-31T13:28:59;26.50;50.80
30999;DHT22;20549;50.042;8.968;2023-08-31T13:31:25;26.40;51.00
30999;DHT22;20549;50.042;8.968;2023-08-31T13:33:52;26.40;51.10
30999;DHT22;20549;50.042;8.968;2023-08-31T13:36:18;26.40;51.00
30999;DHT22;20549;50.042;8.968;2023-08-31T13:38:45;26.40;50.90
30999;DHT22;20549;50.042;8.968;2023-08-31T13:41:12;26.40;50.10
30999;DHT22;20549;50.042;8.968;2023-08-31T13:43:38;26.40;49.70
30999;DHT22;20549;50.042;8.968;2023-08-31T13:46:05;26.40;49.60
30999;DHT22;20549;50.042;8.968;2023-08-31T13:48:31;26.30;49.50
30999;DHT22;20549;50.042;8.968;2023-08-31T13:50:58;26.30;49.10
30999;DHT22;20549;50.042;8.968;2023-08-31T13:53:25;26.30;49.10
30999;DHT22;20549;50.042;8.968;2023-08-31T13:55:51;26.20;48.80
30999;DHT22;20549;50.042;8.968;2023-08-31T13:58:18;26.10;48.20
30999;DHT22;20549;50.042;8.968;2023-08-31T14:00:44;26.00;48.20
30999;DHT22;20549;50.042;8.968;2023-08-31T14:03:11;25.90;48.20
30999;DHT22;20549;50.042;8.968;2023-08-31T14:05:38;25.80;48.20
30999;DHT22;20549;50.042;8.968;2023-08-31T14:08:04;25.60;48.10
30999;DHT22;20549;50.042;8.968;2023-08-31T14:10:31;25.50;48.10
30999;DHT22;20549;50.042;8.968;2023-08-31T14:12:57;25.40;48.00
30999;DHT22;20549;50.042;8.968;2023-08-31T14:15:24;25.30;48.00
30999;DHT22;20549;50.042;8.968;2023-08-31T14:17:50;25.10;47.60
30999;DHT22;20549;50.042;8.968;2023-08-31T14:20:17;25.00;47.90
30999;DHT22;20549;50.042;8.968;2023-08-31T14:22:44;24.80;48.10
30999;DHT22;20549;50.042;8.968;2023-08-31T14:25:11;24.70;48.50
30999;DHT22;20549;50.042;8.968;2023-08-31T14:27:37;24.60;48.70
30999;DHT22;20549;50.042;8.968;2023-08-31T14:30:04;24.50;48.80
30999;DHT22;20549;50.042;8.968;2023-08-31T14:32:30;24.50;48.90
30999;DHT22;20549;50.042;8.968;2023-08-31T14:34:57;24.40;49.00
30999;DHT22;20549;50.042;8.968;2023-08-31T14:37:23;24.30;48.80
30999;DHT22;20549;50.042;8.968;2023-08-31T14:39:50;24.30;48.90
30999;DHT22;20549;50.042;8.968;2023-08-31T14:42:16;24.30;48.80
30999;DHT22;20549;50.042;8.968;2023-08-31T14:44:43;24.20;48.90
30999;DHT22;20549;50.042;8.968;2023-08-31T14:47:10;24.20;48.90
30999;DHT22;20549;50.042;8.968;2023-08-31T14:49:38;24.10;48.90
30999;DHT22;20549;50.042;8.968;2023-08-31T14:52:03;24.10;49.10
30999;DHT22;20549;50.042;8.968;2023-08-31T14:54:29;24.10;49.30
30999;DHT22;20549;50.042;8.968;2023-08-31T14:56:56;24.00;49.60
30999;DHT22;20549;50.042;8.968;2023-08-31T14:59:23;24.00;49.60
30999;DHT22;20549;50.042;8.968;2023-08-31T15:01:49;24.00;50.00
30999;DHT22;20549;50.042;8.968;2023-08-31T15:04:16;23.90;50.00
30999;DHT22;20549;50.042;8.968;2023-08-31T15:06:42;23.90;50.10
30999;DHT22;20549;50.042;8.968;2023-08-31T15:09:09;23.90;50.20
30999;DHT22;20549;50.042;8.968;2023-08-31T15:11:35;23.80;50.90
30999;DHT22;20549;50.042;8.968;2023-08-31T15:14:02;23.80;50.40
30999;DHT22;20549;50.042;8.968;2023-08-31T15:16:29;23.70;50.40
30999;DHT22;20549;50.042;8.968;2023-08-31T15:18:55;23.70;50.60
30999;DHT22;20549;50.042;8.968;2023-08-31T15:21:22;23.70;50.80
30999;DHT22;20549;50.042;8.968;2023-08-31T15:23:48;23.70;51.00
30999;DHT22;20549;50.042;8.968;2023-08-31T15:26:15;23.70;51.10
30999;DHT22;20549;50.042;8.968;2023-08-31T15:28:42;23.70;51.10
30999;DHT22;20549;50.042;8.968;2023-08-31T15:31:09;23.70;51.10
30999;DHT22;20549;50.042;8.968;2023-08-31T15:33:35;23.70;51.00
30999;DHT22;20549;50.042;8.968;2023-08-31T15:36:05;23.70;51.00
30999;DHT22;20549;50.042;8.968;2023-08-31T15:38:28;23.70;51.10